Time;durP1;ratioP1;P1;durP2;ratioP2;P2;SDS_P1;SDS_P2;PMS_P1;PMS_P2;Temp;Humidity;BMP_temperature;BMP_pressure;BME280_temperature;BME280_humidity;BME280_pressure;Samples;Min_cycle;Max_cycle;Signal;HPM_P1;HPM_P2
2022/05/12 00:02:06;;;;;;;28.33;5.90;;;10.00;99.90;;;;;;4995452;28;20378;-74
2022/05/12 00:04:34;;;;;;;;;;;10.00;99.90;;;;;;4994790;28;20038;-73
2022/05/12 00:07:01;;;;;;;24.65;4.85;;;9.90;99.90;;;;;;4995517;28;19929;-74
2022/05/12 00:09:29;;;;;;;25.70;5.53;;;9.90;99.90;;;;;;4995550;28;20046;-74
2022/05/12 00:11:57;;;;;;;30.33;5.60;;;9.90;99.90;;;;;;4994393;28;20042;-74
2022/05/12 00:14:26;;;;;;;31.65;6.28;;;9.80;99.90;;;;;;4995571;28;20053;-74
2022/05/12 00:16:56;;;;;;;26.40;5.55;;;9.80;99.90;;;;;;4995300;28;20358;-74
2022/05/12 00:19:26;;;;;;;24.13;6.10;;;9.80;99.90;;;;;;4994035;28;20046;-73
2022/05/12 00:21:55;;;;;;;23.25;5.95;;;9.80;99.90;;;;;;4995312;28;20050;-73
2022/05/12 00:24:23;;;;;;;26.88;6.38;;;9.80;99.90;;;;;;4994101;28;20053;-73
2022/05/12 00:26:51;;;;;;;;;;;9.80;99.90;;;;;;4995589;28;20051;-74
2022/05/12 00:29:19;;;;;;;;;;;9.70;99.90;;;;;;4994782;28;19929;-74
2022/05/12 00:31:47;;;;;;;29.92;5.68;;;9.70;99.90;;;;;;4994669;28;19921;-74
2022/05/12 00:34:17;;;;;;;26.95;6.18;;;9.70;99.90;;;;;;4995553;28;20050;-74
2022/05/12 00:36:46;;;;;;;24.38;6.60;;;9.60;99.90;;;;;;4978560;28;20042;-74
2022/05/12 00:39:14;;;;;;;22.63;5.70;;;9.60;99.90;;;;;;4994198;28;20066;-74
2022/05/12 00:41:41;;;;;;;;;;;9.60;99.90;;;;;;4995475;28;20479;-74
2022/05/12 00:44:12;;;;;;;31.35;6.30;;;9.50;99.90;;;;;;4994051;28;20238;-73
2022/05/12 00:46:41;;;;;;;26.27;5.80;;;9.50;99.90;;;;;;4995340;28;20061;-74
2022/05/12 00:49:38;;;;;;;25.15;6.22;;;9.50;99.90;;;;;;4995432;28;20042;-72
2022/05/12 00:52:16;;;;;;;19.80;6.32;;;9.50;99.90;;;;;;4993863;28;20046;-73
2022/05/12 00:54:59;;;;;;;;;;;9.50;99.90;;;;;;4978502;28;20385;-75
2022/05/12 00:57:33;;;;;;;30.02;6.30;;;9.50;99.90;;;;;;4994025;28;19936;-72
2022/05/12 01:00:05;;;;;;;19.85;5.35;;;9.50;99.90;;;;;;4995032;28;20484;-74
2022/05/12 01:02:34;;;;;;;37.47;6.13;;;9.50;99.90;;;;;;4995091;28;20043;-74
2022/05/12 01:05:04;;;;;;;31.30;6.20;;;9.50;99.90;;;;;;4994050;28;20050;-72
2022/05/12 01:07:32;;;;;;;24.77;5.45;;;9.50;99.90;;;;;;4994865;28;20057;-74
2022/05/12 01:10:03;;;;;;;26.80;6.32;;;9.50;99.90;;;;;;4994892;28;20378;-73
2022/05/12 01:12:31;;;;;;;24.25;6.13;;;9.60;99.90;;;;;;4993827;28;20046;-72
2022/05/12 01:14:59;;;;;;;22.92;5.63;;;9.50;99.90;;;;;;4994942;28;20053;-73
2022/05/12 01:17:26;;;;;;;30.17;6.00;;;9.50;99.90;;;;;;4993718;28;20054;-72
2022/05/12 01:19:54;;;;;;;21.70;5.20;;;9.50;99.90;;;;;;4994975;28;20049;-72
2022/05/12 01:22:38;;;;;;;36.95;5.80;;;9.50;99.90;;;;;;4993851;28;20061;-73
2022/05/12 01:25:14;;;;;;;30.27;6.28;;;9.50;99.90;;;;;;4993850;28;20057;-74
2022/05/12 01:27:42;;;;;;;23.35;5.25;;;9.40;99.90;;;;;;4994929;28;20053;-74
2022/05/12 01:30:14;;;;;;;28.48;5.65;;;9.50;99.90;;;;;;4994769;28;20054;-72
2022/05/12 01:32:46;;;;;;;29.48;5.65;;;9.50;99.90;;;;;;4997246;28;20055;-72
2022/05/12 01:35:20;;;;;;;31.15;6.05;;;9.40;99.90;;;;;;4998366;28;20046;-75
2022/05/12 01:37:48;;;;;;;28.55;6.00;;;9.40;99.90;;;;;;4996997;28;20053;-74
2022/05/12 01:40:18;;;;;;;;;;;9.40;99.90;;;;;;4998729;28;20472;-74
2022/05/12 01:42:46;;;;;;;21.73;5.68;;;9.40;99.90;;;;;;4998389;28;19922;-73
2022/05/12 01:45:14;;;;;;;29.85;5.97;;;9.40;99.90;;;;;;4997428;28;20050;-74
2022/05/12 01:47:43;;;;;;;19.67;5.80;;;9.40;99.90;;;;;;4998160;28;20061;-74
2022/05/12 01:50:13;;;;;;;32.10;5.93;;;9.30;99.90;;;;;;4997952;28;20355;-74
2022/05/12 01:52:43;;;;;;;32.03;6.88;;;9.30;99.90;;;;;;4996843;28;20061;-74
2022/05/12 01:55:17;;;;;;;27.92;6.82;;;9.30;99.90;;;;;;4997853;28;20050;-74
2022/05/12 01:57:45;;;;;;;25.52;6.07;;;9.30;99.90;;;;;;4996744;28;20351;-73
2022/05/12 02:00:21;;;;;;;36.58;6.60;;;9.30;99.90;;;;;;4997675;28;20058;-72
2022/05/12 02:02:49;;;;;;;35.13;6.68;;;9.20;99.90;;;;;;4997647;28;20062;-73
2022/05/12 02:05:18;;;;;;;;;;;9.30;99.90;;;;;;4997197;28;20047;-72
2022/05/12 02:07:47;;;;;;;37.25;6.03;;;9.30;99.90;;;;;;4997607;28;19922;-74
2022/05/12 02:10:19;;;;;;;22.33;6.20;;;9.30;99.90;;;;;;4997658;28;20046;-73
2022/05/12 02:12:47;;;;;;;27.40;6.30;;;9.20;99.90;;;;;;4996440;28;20054;-72
2022/05/12 02:15:14;;;;;;;;;;;9.30;99.90;;;;;;4998103;28;20051;-72
2022/05/12 02:17:42;;;;;;;25.10;6.00;;;9.20;99.90;;;;;;4996981;28;20391;-72
2022/05/12 02:20:13;;;;;;;31.67;6.28;;;9.20;99.90;;;;;;4997339;28;20409;-74
2022/05/12 02:22:41;;;;;;;25.95;6.07;;;9.20;99.90;;;;;;4997244;28;20046;-74
2022/05/12 02:25:09;;;;;;;31.35;6.13;;;9.20;99.90;;;;;;4996476;28;20050;-72
2022/05/12 02:27:42;;;;;;;25.75;5.88;;;9.20;99.90;;;;;;4997499;28;20038;-74
2022/05/12 02:30:13;;;;;;;21.73;5.43;;;9.20;99.90;;;;;;4997165;28;20043;-74
2022/05/12 02:32:41;;;;;;;31.20;6.32;;;9.10;99.90;;;;;;4996251;28;20054;-72
2022/05/12 02:35:09;;;;;;;25.77;6.25;;;9.10;99.90;;;;;;4996626;28;20057;-72
2022/05/12 02:37:39;;;;;;;24.48;5.65;;;9.10;99.90;;;;;;4996208;28;20318;-74
2022/05/12 02:40:09;;;;;;;22.95;5.30;;;9.00;99.90;;;;;;4997239;28;20046;-74
2022/05/12 02:42:36;;;;;;;30.73;5.90;;;9.00;99.90;;;;;;4996855;28;20055;-73
2022/05/12 02:45:06;;;;;;;27.00;6.03;;;9.00;99.90;;;;;;4995918;28;20054;-74
2022/05/12 02:47:34;;;;;;;20.95;5.55;;;9.00;99.90;;;;;;4996906;28;20366;-72
2022/05/12 02:50:02;;;;;;;22.23;5.80;;;8.90;99.90;;;;;;4996800;28;20373;-74
2022/05/12 02:52:29;;;;;;;;;;;8.90;99.90;;;;;;4996261;28;20499;-72
2022/05/12 02:54:57;;;;;;;26.02;5.57;;;8.90;99.90;;;;;;4996878;28;20267;-74
2022/05/12 02:57:24;;;;;;;34.22;5.93;;;8.90;99.90;;;;;;4995607;28;20046;-73
2022/05/12 02:59:52;;;;;;;23.60;5.28;;;8.90;99.90;;;;;;4996551;28;20057;-72
2022/05/12 03:02:19;;;;;;;22.85;5.45;;;8.90;99.90;;;;;;4996977;28;20373;-73
2022/05/12 03:04:47;;;;;;;22.98;5.63;;;8.90;99.90;;;;;;4995520;28;20050;-72
2022/05/12 03:07:15;;;;;;;25.33;5.50;;;8.90;99.90;;;;;;4996654;28;20466;-72
2022/05/12 03:09:42;;;;;;;30.33;5.78;;;8.80;99.90;;;;;;4996398;28;20051;-72
2022/05/12 03:12:10;;;;;;;32.55;5.50;;;8.80;99.90;;;;;;4995388;28;20453;-71
2022/05/12 03:14:38;;;;;;;32.45;6.00;;;8.80;99.90;;;;;;4996362;28;20064;-73
2022/05/12 03:17:06;;;;;;;23.77;4.90;;;8.80;99.90;;;;;;4996518;28;20050;-72
2022/05/12 03:19:34;;;;;;;28.55;6.22;;;8.80;99.90;;;;;;4995311;28;20454;-74
2022/05/12 03:22:02;;;;;;;34.78;5.90;;;8.80;99.90;;;;;;4996379;28;20057;-74
2022/05/12 03:24:29;;;;;;;30.90;5.63;;;8.80;99.90;;;;;;4994115;28;20057;-73
2022/05/12 03:26:57;;;;;;;30.92;6.22;;;8.80;99.90;;;;;;4996101;28;20053;-72
2022/05/12 03:29:24;;;;;;;28.83;5.93;;;8.80;99.90;;;;;;4996136;28;20365;-71
2022/05/12 03:31:52;;;;;;;18.08;5.18;;;8.90;99.90;;;;;;4995155;28;20053;-74
2022/05/12 03:34:19;;;;;;;26.40;5.18;;;8.80;99.90;;;;;;4995996;28;20050;-74
2022/05/12 03:36:47;;;;;;;32.38;6.15;;;8.80;99.90;;;;;;4996112;28;20049;-71
2022/05/12 03:39:15;;;;;;;29.52;5.07;;;8.80;99.90;;;;;;4994709;28;20054;-71
2022/05/12 03:41:42;;;;;;;26.42;6.03;;;8.80;99.90;;;;;;4996186;28;20058;-72
2022/05/12 03:46:56;;;;;;;24.27;5.25;;;8.70;99.90;;;;;;4995964;28;20046;-74
2022/05/12 03:49:24;;;;;;;30.30;5.43;;;8.70;99.90;;;;;;4994815;28;20054;-74
2022/05/12 03:51:52;;;;;;;33.13;5.50;;;8.70;99.90;;;;;;4994607;28;20061;-72
2022/05/12 03:54:20;;;;;;;26.83;5.20;;;8.70;99.90;;;;;;4995234;28;20050;-74
2022/05/12 03:56:47;;;;;;;30.35;5.47;;;8.60;99.90;;;;;;4995582;28;20053;-74
2022/05/12 03:59:15;;;;;;;29.23;5.60;;;8.60;99.90;;;;;;4994892;28;20051;-72
2022/05/12 04:01:43;;;;;;;21.35;4.82;;;8.50;99.90;;;;;;4995485;28;20042;-73
2022/05/12 04:04:10;;;;;;;24.55;5.55;;;8.50;99.90;;;;;;4994452;28;20057;-73
2022/05/12 04:06:38;;;;;;;26.48;5.50;;;8.50;99.90;;;;;;4995464;28;20046;-72
2022/05/12 04:09:05;;;;;;;23.95;5.53;;;8.50;99.90;;;;;;4995692;28;20054;-73
2022/05/12 04:11:33;;;;;;;25.13;4.72;;;8.40;99.90;;;;;;4977468;28;20488;-74
2022/05/12 04:14:01;;;;;;;30.05;5.07;;;8.40;99.90;;;;;;4995359;28;20046;-73
2022/05/12 04:16:28;;;;;;;31.67;6.28;;;8.40;99.90;;;;;;4994919;28;20053;-72
2022/05/12 04:18:56;;;;;;;31.67;5.63;;;8.40;99.90;;;;;;4994193;28;20045;-72
2022/05/12 04:21:24;;;;;;;28.25;5.88;;;8.30;99.90;;;;;;4994411;28;20039;-72
2022/05/12 04:23:51;;;;;;;30.58;5.88;;;8.30;99.90;;;;;;4995116;28;20069;-73
2022/05/12 04:26:19;;;;;;;31.77;5.63;;;8.30;99.90;;;;;;4994175;28;20053;-73
2022/05/12 04:28:46;;;;;;;26.70;5.82;;;8.30;99.90;;;;;;4978488;28;20046;-73
2022/05/12 04:31:14;;;;;;;24.20;6.55;;;8.30;99.90;;;;;;4994237;28;20458;-74
2022/05/12 04:36:28;;;;;;;25.85;5.50;;;8.30;99.90;;;;;;4994609;28;20380;-74
2022/05/12 04:38:57;;;;;;;33.08;6.00;;;8.30;99.90;;;;;;4994176;28;20050;-74
2022/05/12 04:41:26;;;;;;;26.25;5.43;;;8.30;99.90;;;;;;4994994;28;20488;-74
2022/05/12 04:43:54;;;;;;;24.80;5.93;;;8.30;99.90;;;;;;4995162;28;20046;-72
2022/05/12 04:46:24;;;;;;;;;;;8.20;99.90;;;;;;4994785;28;20058;-72
2022/05/12 04:48:52;;;;;;;32.55;6.55;;;8.30;99.90;;;;;;4995215;28;19929;-73
2022/05/12 04:51:20;;;;;;;30.35;6.53;;;8.20;99.90;;;;;;4994116;28;20057;-73
2022/05/12 04:53:47;;;;;;;41.75;6.75;;;8.30;99.90;;;;;;4995444;28;20042;-72
2022/05/12 04:56:15;;;;;;;28.65;5.95;;;8.30;99.90;;;;;;4995183;28;20050;-72
2022/05/12 04:58:42;;;;;;;29.30;6.45;;;8.30;99.90;;;;;;4993988;28;20054;-73
2022/05/12 05:01:10;;;;;;;30.98;6.40;;;8.30;99.90;;;;;;4995125;28;20054;-73
2022/05/12 05:03:38;;;;;;;44.88;6.88;;;8.40;99.90;;;;;;4994948;28;20469;-72
2022/05/12 05:06:05;;;;;;;32.75;6.63;;;8.30;99.90;;;;;;4995245;28;20046;-72
2022/05/12 05:08:34;;;;;;;33.47;7.20;;;8.40;99.90;;;;;;4998943;28;20486;-74
2022/05/12 05:11:02;;;;;;;33.88;6.55;;;8.40;99.90;;;;;;4997783;28;20058;-74
2022/05/12 05:13:31;;;;;;;26.92;6.07;;;8.40;99.90;;;;;;4998743;28;20073;-74
2022/05/12 05:15:59;;;;;;;32.83;6.57;;;8.50;99.90;;;;;;4998731;28;20057;-74
2022/05/12 05:18:26;;;;;;;33.20;6.65;;;8.50;99.90;;;;;;4997476;28;20046;-74
2022/05/12 05:20:54;;;;;;;38.47;7.95;;;8.50;99.90;;;;;;4998376;28;20057;-72
2022/05/12 05:23:22;;;;;;;31.25;6.53;;;8.60;99.90;;;;;;4998216;28;20070;-73
2022/05/12 05:25:51;;;;;;;40.85;6.88;;;8.60;99.90;;;;;;4997365;28;20492;-72
2022/05/12 05:28:19;;;;;;;35.83;6.40;;;8.70;99.90;;;;;;4998745;28;20381;-73
2022/05/12 05:30:47;;;;;;;30.25;6.15;;;8.70;99.90;;;;;;4996556;28;20050;-74
2022/05/12 05:33:14;;;;;;;40.28;6.60;;;8.70;99.90;;;;;;4998386;28;20477;-73
2022/05/12 05:35:42;;;;;;;28.85;7.25;;;8.80;99.90;;;;;;4998278;28;20057;-72
2022/05/12 05:38:10;;;;;;;32.33;7.15;;;8.90;99.90;;;;;;4997485;28;20362;-72
2022/05/12 05:40:38;;;;;;;36.85;7.82;;;9.00;99.90;;;;;;4998403;28;20042;-73
2022/05/12 05:43:13;;;;;;;34.50;7.05;;;9.10;99.90;;;;;;4998085;28;20054;-70
2022/05/12 05:45:41;;;;;;;35.88;7.30;;;9.10;99.90;;;;;;4996454;28;20046;-72
2022/05/12 05:48:09;;;;;;;31.58;7.53;;;9.20;99.90;;;;;;4998248;28;20457;-72
2022/05/12 05:53:30;;;;;;;41.00;7.50;;;9.30;99.90;;;;;;4998436;28;20057;-72
2022/05/12 05:56:00;;;;;;;33.88;7.22;;;9.40;99.90;;;;;;4998071;28;20381;-72
2022/05/12 05:58:28;;;;;;;31.83;7.03;;;9.40;99.90;;;;;;4996792;28;20054;-71
2022/05/12 06:00:56;;;;;;;29.13;7.25;;;9.60;99.90;;;;;;4997939;28;20504;-71
2022/05/12 06:03:25;;;;;;;33.55;6.60;;;9.60;99.90;;;;;;4998045;28;20046;-72
2022/05/12 06:05:52;;;;;;;;;;;9.60;99.90;;;;;;4997179;28;20043;-72
2022/05/12 06:08:21;;;;;;;35.65;6.43;;;9.70;99.90;;;;;;4997832;28;19929;-71
2022/05/12 06:10:59;;;;;;;18.33;5.32;;;9.80;99.90;;;;;;4996589;28;20054;-71
2022/05/12 06:13:26;;;;;;;29.83;6.35;;;9.80;99.90;;;;;;4981122;28;20057;-71
2022/05/12 06:15:54;;;;;;;36.80;5.90;;;9.90;99.90;;;;;;4997732;28;20117;-72
2022/05/12 06:18:22;;;;;;;30.45;5.57;;;10.00;99.90;;;;;;4995439;28;20054;-72
2022/05/12 06:20:50;;;;;;;30.48;6.20;;;10.00;99.90;;;;;;4997992;28;20042;-72
2022/05/12 06:23:18;;;;;;;32.78;5.70;;;10.10;99.90;;;;;;4997522;28;20062;-72
2022/05/12 06:25:46;;;;;;;26.30;4.78;;;10.10;99.90;;;;;;4996534;28;20053;-72
2022/05/12 06:28:14;;;;;;;38.78;6.38;;;10.20;99.90;;;;;;4997488;28;20042;-72
2022/05/12 06:30:41;;;;;;;21.02;4.25;;;10.30;99.90;;;;;;4996950;28;20050;-73
2022/05/12 06:33:18;;;;;;;25.83;5.28;;;10.30;99.90;;;;;;4997856;28;20054;-73
2022/05/12 06:35:47;;;;;;;24.95;4.63;;;10.40;99.90;;;;;;4997281;28;20055;-72
2022/05/12 06:38:15;;;;;;;28.63;4.38;;;10.40;99.90;;;;;;4996084;28;20405;-72
2022/05/12 06:40:42;;;;;;;27.20;4.65;;;10.50;99.90;;;;;;4997230;28;20499;-72
2022/05/12 06:43:11;;;;;;;23.80;5.05;;;10.60;99.90;;;;;;4996633;28;20050;-71
2022/05/12 06:45:40;;;;;;;29.30;4.85;;;10.60;99.90;;;;;;4995887;28;20043;-72
2022/05/12 06:48:09;;;;;;;26.35;4.80;;;10.60;99.90;;;;;;4996711;28;20046;-71
2022/05/12 06:50:37;;;;;;;29.27;4.75;;;10.60;99.90;;;;;;4996631;28;20050;-72
2022/05/12 06:53:05;;;;;;;23.00;5.05;;;10.70;99.90;;;;;;4996552;28;20065;-72
2022/05/12 06:55:33;;;;;;;28.95;4.57;;;10.80;99.90;;;;;;4996848;28;20046;-76
2022/05/12 06:58:01;;;;;;;19.02;4.43;;;10.80;99.90;;;;;;4978297;28;20061;-77
2022/05/12 07:00:28;;;;;;;30.10;4.80;;;10.90;99.90;;;;;;4996620;28;20072;-77
2022/05/12 07:02:56;;;;;;;28.88;4.97;;;10.90;99.90;;;;;;4996530;28;20053;-76
2022/05/12 07:05:27;;;;;;;22.40;4.35;;;11.00;99.90;;;;;;4995561;28;20046;-77
2022/05/12 07:07:56;;;;;;;22.67;3.92;;;11.00;99.90;;;;;;4996499;28;20053;-77
2022/05/12 07:10:25;;;;;;;19.60;4.25;;;11.10;99.90;;;;;;4996311;28;20046;-75
2022/05/12 07:12:53;;;;;;;23.30;4.50;;;11.10;99.90;;;;;;4995086;28;20047;-75
2022/05/12 07:15:25;;;;;;;29.00;4.68;;;11.20;99.90;;;;;;4996194;28;20046;-73
2022/05/12 07:17:57;;;;;;;22.23;4.22;;;11.20;99.90;;;;;;4995257;28;20050;-74
2022/05/12 07:28:45;;;;;;;18.05;3.60;;;11.40;99.90;;;;;;4995222;28;20054;-75
2022/05/12 07:31:13;;;;;;;23.00;3.67;;;11.50;99.90;;;;;;4994713;28;20042;-73
2022/05/12 07:33:43;;;;;;;23.85;4.30;;;11.60;99.90;;;;;;5005541;28;20049;-74
2022/05/12 07:36:21;;;;;;;21.15;3.88;;;11.60;99.90;;;;;;5015599;28;20045;-74
2022/05/12 07:38:49;;;;;;;29.00;4.45;;;11.70;99.90;;;;;;5014830;28;20061;-75
2022/05/12 07:41:17;;;;;;;20.50;3.92;;;11.70;99.90;;;;;;5016046;28;20456;-74
2022/05/12 07:43:47;;;;;;;20.13;3.47;;;11.80;99.90;;;;;;5014632;28;20053;-75
2022/05/12 07:46:17;;;;;;;23.88;4.30;;;11.80;99.90;;;;;;5006273;28;20041;-76
2022/05/12 07:48:45;;;;;;;23.75;4.05;;;11.90;99.90;;;;;;4995127;28;20062;-75
2022/05/12 07:51:13;;;;;;;22.48;4.18;;;12.00;99.90;;;;;;4994720;28;20060;-74
2022/05/12 07:53:41;;;;;;;25.05;4.47;;;12.00;99.90;;;;;;4995849;28;20046;-76
2022/05/12 07:56:09;;;;;;;13.73;3.45;;;12.10;99.90;;;;;;4995837;28;20046;-75
2022/05/12 07:58:36;;;;;;;16.80;3.78;;;12.20;99.90;;;;;;4994844;28;20050;-75
2022/05/12 08:01:05;;;;;;;24.42;4.00;;;12.20;99.90;;;;;;4995509;28;20381;-74
2022/05/12 08:03:34;;;;;;;18.08;3.17;;;12.30;99.90;;;;;;4996336;28;20050;-75
2022/05/12 08:06:02;;;;;;;20.27;3.83;;;12.40;99.90;;;;;;4999528;28;20037;-74
2022/05/12 08:08:30;;;;;;;18.83;3.33;;;12.50;99.90;;;;;;5015048;28;20050;-76
2022/05/12 08:10:57;;;;;;;12.02;2.50;;;12.60;99.90;;;;;;5014454;28;20053;-75
2022/05/12 08:13:25;;;;;;;16.65;2.58;;;12.70;99.90;;;;;;5014734;28;20052;-74
2022/05/12 08:15:54;;;;;;;14.82;2.60;;;12.80;99.90;;;;;;5015098;28;20042;-74
2022/05/12 08:18:23;;;;;;;18.70;2.78;;;12.90;99.90;;;;;;5014162;28;20057;-74
2022/05/12 08:20:52;;;;;;;21.10;2.70;;;13.00;99.90;;;;;;4997631;28;20057;-73
2022/05/12 08:23:20;;;;;;;9.93;2.60;;;13.10;99.90;;;;;;4510997;28;20086;-74
2022/05/12 08:25:48;;;;;;;13.93;2.60;;;13.10;99.90;;;;;;5013965;28;20050;-74
2022/05/12 08:28:19;;;;;;;13.52;2.53;;;13.30;99.90;;;;;;4998179;28;20053;-73
2022/05/12 08:30:49;;;;;;;17.17;2.65;;;13.30;99.90;;;;;;5013983;28;20054;-74
2022/05/12 08:33:18;;;;;;;16.30;2.40;;;13.40;99.90;;;;;;5015143;28;20053;-74
2022/05/12 08:35:46;;;;;;;14.38;2.30;;;13.50;99.90;;;;;;5014547;28;20049;-74
2022/05/12 08:38:16;;;;;;;8.75;2.10;;;13.60;99.90;;;;;;5013507;28;20373;-73
2022/05/12 08:41:02;;;;;;;11.63;1.85;;;13.70;99.90;;;;;;5000740;28;20045;-73
2022/05/12 08:43:44;;;;;;;10.55;2.25;;;13.70;99.90;;;;;;5018921;28;20057;-74
2022/05/12 08:46:19;;;;;;;10.43;1.67;;;13.80;99.90;;;;;;5016936;28;20037;-74
2022/05/12 08:48:49;;;;;;;8.75;1.70;;;13.80;99.90;;;;;;5017742;28;20038;-74
2022/05/12 08:51:19;;;;;;;18.92;2.70;;;13.90;99.90;;;;;;5017051;28;20061;-75
2022/05/12 08:53:50;;;;;;;18.65;2.80;;;13.90;99.90;;;;;;5018313;28;20503;-74
2022/05/12 08:56:21;;;;;;;11.52;1.90;;;14.00;99.90;;;;;;5001217;28;20054;-75
2022/05/12 08:58:52;;;;;;;10.38;2.10;;;14.10;99.90;;;;;;5017330;28;20373;-74
2022/05/12 09:01:46;;;;;;;9.95;1.92;;;14.20;99.90;;;;;;5018568;28;20050;-74
2022/05/12 09:04:32;;;;;;;10.10;1.58;;;14.30;99.90;;;;;;5017988;28;20050;-75
2022/05/12 09:07:07;;;;;;;8.80;1.70;;;14.40;99.90;;;;;;5018100;28;20065;-73
2022/05/12 09:09:56;;;;;;;9.77;1.75;;;14.40;99.90;;;;;;5018778;28;20120;-75
2022/05/12 09:12:52;;;;;;;7.88;1.70;;;14.40;99.90;;;;;;5017533;28;20050;-74
2022/05/12 09:15:36;;;;;;;11.10;2.05;;;14.40;99.90;;;;;;5018041;28;20050;-75
2022/05/12 09:18:15;;;;;;;11.95;2.10;;;14.40;99.90;;;;;;5017225;28;20060;-74
2022/05/12 09:20:43;;;;;;;7.55;1.70;;;14.40;99.90;;;;;;5001700;28;20049;-74
2022/05/12 09:23:11;;;;;;;12.13;2.28;;;14.40;99.90;;;;;;5018133;28;20323;-75
2022/05/12 09:25:43;;;;;;;10.02;1.70;;;14.50;99.90;;;;;;5017603;28;20045;-75
2022/05/12 09:28:29;;;;;;;8.10;1.65;;;14.50;99.90;;;;;;5018062;28;20373;-74
2022/05/12 09:31:12;;;;;;;13.50;2.35;;;14.50;99.90;;;;;;5017088;28;20049;-74
2022/05/12 09:33:45;;;;;;;13.60;2.13;;;14.50;99.90;;;;;;5017800;28;20468;-75
2022/05/12 09:36:28;;;;;;;7.40;1.83;;;14.50;99.90;;;;;;5017988;28;20058;-73
2022/05/12 09:38:57;;;;;;;9.80;2.10;;;14.50;99.90;;;;;;5000073;28;20365;-75
2022/05/12 09:41:37;;;;;;;6.97;1.70;;;14.60;99.90;;;;;;5018333;28;20068;-75
2022/05/12 09:44:27;;;;;;;8.70;1.60;;;14.80;99.90;;;;;;5017012;28;20061;-75
2022/05/12 09:47:02;;;;;;;7.63;1.38;;;14.80;99.90;;;;;;5018279;28;20045;-74
2022/05/12 09:49:34;;;;;;;8.50;1.60;;;14.90;99.90;;;;;;5017970;28;20049;-75
2022/05/12 09:52:35;;;;;;;11.88;1.50;;;15.00;99.90;;;;;;5015666;28;20046;-75
2022/05/12 09:55:23;;;;;;;9.73;1.88;;;15.00;99.90;;;;;;5017536;28;20053;-75
2022/05/12 09:57:56;;;;;;;10.40;1.88;;;15.10;99.90;;;;;;5015975;28;20041;-75
2022/05/12 10:00:44;;;;;;;10.90;1.77;;;15.30;99.90;;;;;;5017253;28;20045;-75
2022/05/12 10:09:17;;;;;;;10.38;1.48;;;16.00;99.90;;;;;;5017022;28;20053;-75
2022/05/12 10:12:02;;;;;;;10.15;1.60;;;16.30;99.90;;;;;;5015961;28;20376;-75
2022/05/12 10:14:52;;;;;;;9.10;1.63;;;16.50;99.90;;;;;;5016771;28;20377;-75
2022/05/12 10:17:34;;;;;;;9.35;1.65;;;17.00;99.90;;;;;;5016030;28;20046;-75
2022/05/12 10:20:13;;;;;;;11.20;1.83;;;16.70;99.30;;;;;;5016910;28;20046;-75
2022/05/12 10:22:52;;;;;;;9.15;1.58;;;16.80;99.90;;;;;;5016649;28;20365;-76
2022/05/12 10:25:28;;;;;;;8.18;1.83;;;16.90;99.90;;;;;;5015626;28;20053;-76
2022/05/12 10:28:14;;;;;;;9.30;1.55;;;16.90;99.90;;;;;;5016845;28;20050;-75
2022/05/12 10:30:43;;;;;;;11.25;1.90;;;16.90;99.90;;;;;;5015818;28;20042;-77
2022/05/12 10:33:22;;;;;;;7.40;1.60;;;17.00;99.70;;;;;;5016704;28;20049;-76
2022/05/12 10:36:23;;;;;;;6.50;1.63;;;17.10;99.70;;;;;;5017543;28;20050;-75
2022/05/12 10:39:15;;;;;;;11.98;1.92;;;17.20;98.50;;;;;;5016030;28;20361;-76
2022/05/12 10:42:04;;;;;;;7.43;1.60;;;17.50;97.90;;;;;;5017113;28;20049;-76
2022/05/12 10:45:05;;;;;;;8.82;1.58;;;17.70;97.10;;;;;;5015951;28;20049;-76
2022/05/12 10:48:04;;;;;;;6.07;1.55;;;17.70;96.60;;;;;;5016400;28;20042;-76
2022/05/12 10:50:50;;;;;;;9.43;1.90;;;17.60;94.80;;;;;;5016011;28;20483;-81
2022/05/12 10:53:35;;;;;;;6.77;1.70;;;17.50;94.30;;;;;;5016287;28;20046;-77
2022/05/12 10:56:29;;;;;;;7.75;1.13;;;17.50;94.60;;;;;;5016315;28;20295;-77
2022/05/12 10:59:30;;;;;;;6.32;1.33;;;17.50;96.20;;;;;;5015399;28;20064;-77
2022/05/12 11:02:05;;;;;;;10.25;1.83;;;17.50;95.20;;;;;;4998872;28;20069;-77
2022/05/12 11:04:42;;;;;;;6.95;1.60;;;17.30;94.20;;;;;;5014206;28;20469;-78
2022/05/12 11:07:25;;;;;;;10.90;1.70;;;17.00;94.90;;;;;;4998809;28;20053;-75
2022/05/12 11:10:09;;;;;;;8.10;1.88;;;16.70;94.60;;;;;;4999151;28;20048;-74
2022/05/12 11:12:44;;;;;;;9.68;1.73;;;16.50;95.80;;;;;;5011422;28;20053;-76
2022/05/12 11:15:18;;;;;;;9.40;2.10;;;16.30;94.90;;;;;;4995440;28;20054;-75
2022/05/12 11:17:58;;;;;;;9.38;1.85;;;16.20;95.50;;;;;;4980295;28;20054;-75
2022/05/12 11:20:31;;;;;;;9.77;1.90;;;16.10;95.70;;;;;;5015893;28;20473;-76
2022/05/12 11:23:12;;;;;;;7.32;2.10;;;16.10;95.70;;;;;;5001227;28;20058;-75
2022/05/12 11:26:19;;;;;;;8.05;1.60;;;16.10;95.10;;;;;;4995042;28;20061;-74
2022/05/12 11:32:04;;;;;;;8.10;1.92;;;16.40;97.10;;;;;;5014905;28;20057;-76
2022/05/12 11:34:34;;;;;;;8.98;2.03;;;16.50;97.10;;;;;;5006512;28;20050;-76
2022/05/12 11:37:25;;;;;;;7.72;1.45;;;16.60;96.50;;;;;;4996046;28;20042;-75
2022/05/12 11:39:55;;;;;;;5.07;1.20;;;16.70;95.10;;;;;;4996019;28;20050;-76
2022/05/12 11:42:28;;;;;;;7.43;1.27;;;16.90;95.20;;;;;;4995882;28;20037;-75
2022/05/12 11:44:58;;;;;;;8.38;2.35;;;17.10;94.40;;;;;;5029331;28;20056;-76
2022/05/12 11:47:53;;;;;;;7.05;1.63;;;17.40;94.50;;;;;;5035270;28;20479;-75
2022/05/12 11:50:57;;;;;;;8.30;1.90;;;17.70;93.80;;;;;;5033657;28;20396;-76
2022/05/12 11:54:01;;;;;;;7.55;1.65;;;18.00;93.10;;;;;;5034714;28;20049;-76
2022/05/12 11:56:43;;;;;;;8.95;1.85;;;18.30;93.20;;;;;;5005484;28;20056;-74
2022/05/12 11:59:24;;;;;;;9.60;1.80;;;18.50;92.50;;;;;;5033712;28;20068;-77
2022/05/12 12:01:56;;;;;;;9.63;1.80;;;18.70;91.60;;;;;;5034893;28;20045;-77
2022/05/12 12:04:36;;;;;;;10.85;2.33;;;18.80;91.00;;;;;;5033483;28;20046;-78
2022/05/12 12:07:06;;;;;;;15.20;2.28;;;18.70;92.20;;;;;;5034676;28;20045;-78
2022/05/12 12:09:37;;;;;;;8.35;2.13;;;18.60;92.50;;;;;;5034585;28;20046;-78
2022/05/12 12:12:08;;;;;;;10.27;2.35;;;18.30;91.70;;;;;;5033888;28;20045;-76
2022/05/12 12:14:51;;;;;;;7.35;1.90;;;18.10;93.30;;;;;;5034247;28;20456;-75
2022/05/12 12:17:24;;;;;;;11.27;1.92;;;17.90;91.10;;;;;;5033745;28;20049;-76
2022/05/12 12:19:56;;;;;;;11.18;2.22;;;17.80;92.50;;;;;;5034554;28;20049;-77
2022/05/12 12:22:26;;;;;;;10.63;2.00;;;17.60;90.80;;;;;;5034557;28;20049;-76
2022/05/12 12:25:13;;;;;;;7.75;1.80;;;17.60;92.90;;;;;;5016132;28;20058;-78
2022/05/12 12:27:53;;;;;;;10.63;1.98;;;17.60;93.10;;;;;;5034644;28;20050;-76
2022/05/12 12:30:26;;;;;;;16.35;2.47;;;17.60;91.30;;;;;;5034573;28;20361;-77
2022/05/12 12:33:34;;;;;;;11.00;2.00;;;17.60;92.10;;;;;;5033215;28;20046;-76
2022/05/12 12:36:17;;;;;;;11.43;1.90;;;17.80;92.40;;;;;;4935699;29;20074;-76
2022/05/12 12:38:49;;;;;;;7.47;1.63;;;17.90;92.30;;;;;;4934858;29;20383;-77
2022/05/12 12:41:32;;;;;;;6.15;1.65;;;18.10;90.50;;;;;;4998597;28;20045;-76
2022/05/12 12:44:09;;;;;;;11.20;2.17;;;18.10;92.10;;;;;;5015907;28;20325;-76
2022/05/12 12:47:15;;;;;;;9.35;1.80;;;18.20;91.10;;;;;;5034171;28;20453;-77
2022/05/12 12:50:03;;;;;;;7.18;1.67;;;18.20;91.90;;;;;;5034146;28;20364;-77
2022/05/12 12:52:30;;;;;;;8.95;1.88;;;18.10;91.20;;;;;;5033451;28;20041;-77
2022/05/12 12:57:52;;;;;;;8.57;1.95;;;17.80;91.90;;;;;;5033377;28;20041;-77
2022/05/12 13:00:33;;;;;;;9.93;1.85;;;17.80;91.70;;;;;;5034165;28;20380;-77
2022/05/12 13:03:19;;;;;;;11.63;2.53;;;17.90;92.20;;;;;;5017027;28;20049;-76
2022/05/12 13:05:48;;;;;;;8.23;1.70;;;18.00;92.30;;;;;;5033343;28;20049;-77
2022/05/12 13:08:30;;;;;;;8.88;1.90;;;18.10;92.60;;;;;;5034105;28;20060;-79
2022/05/12 13:11:00;;;;;;;8.10;1.52;;;18.20;90.10;;;;;;5033926;28;20472;-78
2022/05/12 13:13:28;;;;;;;8.52;1.80;;;18.30;91.50;;;;;;5034197;28;20041;-78
2022/05/12 13:16:02;;;;;;;9.82;1.80;;;18.20;91.50;;;;;;5034785;28;20050;-78
2022/05/12 13:18:34;;;;;;;9.65;1.70;;;18.30;91.60;;;;;;5033491;28;20052;-78
2022/05/12 13:21:04;;;;;;;7.50;1.45;;;18.40;91.60;;;;;;5034721;28;20048;-77
2022/05/12 13:23:36;;;;;;;7.68;1.88;;;18.60;90.80;;;;;;5033926;28;20041;-78
2022/05/12 13:26:06;;;;;;;8.13;1.90;;;18.70;91.40;;;;;;5033487;28;20045;-78
2022/05/12 13:28:37;;;;;;;8.38;1.60;;;19.00;91.20;;;;;;5037535;28;20064;-78
2022/05/12 13:31:24;;;;;;;10.15;2.03;;;19.20;90.80;;;;;;5037431;28;20387;-78
2022/05/12 13:34:25;;;;;;;13.68;1.67;;;19.30;90.00;;;;;;5038475;28;20056;-78
2022/05/12 13:37:12;;;;;;;8.57;1.98;;;19.50;89.00;;;;;;5037994;28;20471;-78
2022/05/12 13:39:49;;;;;;;7.60;1.90;;;19.70;90.60;;;;;;5019628;28;20052;-78
2022/05/12 13:42:38;;;;;;;8.18;1.95;;;19.80;89.90;;;;;;5037553;28;20061;-79
2022/05/12 13:45:25;;;;;;;9.25;1.90;;;19.90;90.10;;;;;;5036869;28;20539;-78
2022/05/12 13:47:56;;;;;;;8.05;2.15;;;20.00;89.60;;;;;;5020917;28;20060;-79